sensor_id;sensor_type;location;lat;lon;timestamp;P1;durP1;ratioP1;P2;durP2;ratioP2
57191;SDS011;43052;52.588;13.396;2024-02-28T00:01:23;27.58;;;13.15;;
57191;SDS011;43052;52.588;13.396;2024-02-28T00:03:49;28.10;;;14.40;;
57191;SDS011;43052;52.588;13.396;2024-02-28T00:06:18;30.08;;;14.52;;
57191;SDS011;43052;52.588;13.396;2024-02-28T00:08:44;31.40;;;14.30;;
57191;SDS011;43052;52.588;13.396;2024-02-28T00:11:09;31.35;;;15.02;;
57191;SDS011;43052;52.588;13.396;2024-02-28T00:13:35;31.58;;;14.57;;
57191;SDS011;43052;52.588;13.396;2024-02-28T00:16:00;27.48;;;13.52;;
57191;SDS011;43052;52.588;13.396;2024-02-28T00:18:27;29.52;;;14.52;;
57191;SDS011;43052;52.588;13.396;2024-02-28T00:20:52;30.88;;;14.98;;
57191;SDS011;43052;52.588;13.396;2024-02-28T00:23:19;29.45;;;13.88;;
57191;SDS011;43052;52.588;13.396;2024-02-28T00:25:45;28.48;;;12.88;;
57191;SDS011;43052;52.588;13.396;2024-02-28T00:28:10;27.35;;;13.40;;
57191;SDS011;43052;52.588;13.396;2024-02-28T00:30:36;26.33;;;13.48;;
57191;SDS011;43052;52.588;13.396;2024-02-28T00:33:01;29.77;;;13.98;;
57191;SDS011;43052;52.588;13.396;2024-02-28T00:35:26;27.17;;;13.70;;
57191;SDS011;43052;52.588;13.396;2024-02-28T00:37:53;25.23;;;13.38;;
57191;SDS011;43052;52.588;13.396;2024-02-28T00:40:18;26.73;;;13.27;;
57191;SDS011;43052;52.588;13.396;2024-02-28T00:42:44;27.30;;;12.95;;
57191;SDS011;43052;52.588;13.396;2024-02-28T00:45:10;28.73;;;14.10;;
57191;SDS011;43052;52.588;13.396;2024-02-28T00:47:36;28.58;;;14.38;;
57191;SDS011;43052;52.588;13.396;2024-02-28T00:50:01;28.77;;;13.70;;
57191;SDS011;43052;52.588;13.396;2024-02-28T00:52:30;26.13;;;12.43;;
57191;SDS011;43052;52.588;13.396;2024-02-28T00:54:57;23.33;;;11.48;;
57191;SDS011;43052;52.588;13.396;2024-02-28T00:57:22;25.90;;;12.15;;
57191;SDS011;43052;52.588;13.396;2024-02-28T00:59:48;25.92;;;12.30;;
57191;SDS011;43052;52.588;13.396;2024-02-28T01:02:13;24.52;;;13.10;;
57191;SDS011;43052;52.588;13.396;2024-02-28T01:04:39;28.30;;;12.95;;
57191;SDS011;43052;52.588;13.396;2024-02-28T01:07:06;23.73;;;12.27;;
57191;SDS011;43052;52.588;13.396;2024-02-28T01:09:32;23.83;;;12.65;;
57191;SDS011;43052;52.588;13.396;2024-02-28T01:11:57;24.77;;;12.85;;
57191;SDS011;43052;52.588;13.396;2024-02-28T01:14:23;27.75;;;12.93;;
57191;SDS011;43052;52.588;13.396;2024-02-28T01:16:48;26.48;;;13.38;;
57191;SDS011;43052;52.588;13.396;2024-02-28T01:19:15;23.58;;;13.07;;
57191;SDS011;43052;52.588;13.396;2024-02-28T01:21:41;28.65;;;13.48;;
57191;SDS011;43052;52.588;13.396;2024-02-28T01:24:06;30.02;;;13.88;;
57191;SDS011;43052;52.588;13.396;2024-02-28T01:26:32;26.92;;;13.75;;
57191;SDS011;43052;52.588;13.396;2024-02-28T01:28:57;26.27;;;14.05;;
57191;SDS011;43052;52.588;13.396;2024-02-28T01:31:23;26.13;;;12.82;;
57191;SDS011;43052;52.588;13.396;2024-02-28T01:33:48;26.95;;;12.63;;
57191;SDS011;43052;52.588;13.396;2024-02-28T01:36:14;26.27;;;13.52;;
57191;SDS011;43052;52.588;13.396;2024-02-28T01:38:39;23.60;;;12.75;;
57191;SDS011;43052;52.588;13.396;2024-02-28T01:41:05;25.23;;;12.48;;
57191;SDS011;43052;52.588;13.396;2024-02-28T01:43:31;26.08;;;12.95;;
57191;SDS011;43052;52.588;13.396;2024-02-28T01:45:58;25.48;;;12.65;;
57191;SDS011;43052;52.588;13.396;2024-02-28T01:48:26;21.75;;;12.95;;
57191;SDS011;43052;52.588;13.396;2024-02-28T01:50:51;23.40;;;11.98;;
57191;SDS011;43052;52.588;13.396;2024-02-28T01:53:17;25.63;;;12.93;;
57191;SDS011;43052;52.588;13.396;2024-02-28T01:55:42;24.25;;;12.05;;
57191;SDS011;43052;52.588;13.396;2024-02-28T01:58:08;22.65;;;12.18;;
57191;SDS011;43052;52.588;13.396;2024-02-28T02:00:34;23.77;;;11.88;;
57191;SDS011;43052;52.588;13.396;2024-02-28T02:03:00;23.60;;;11.93;;
57191;SDS011;43052;52.588;13.396;2024-02-28T02:05:26;20.52;;;11.43;;
57191;SDS011;43052;52.588;13.396;2024-02-28T02:07:51;20.58;;;10.20;;
57191;SDS011;43052;52.588;13.396;2024-02-28T02:10:17;19.52;;;10.88;;
57191;SDS011;43052;52.588;13.396;2024-02-28T02:12:43;23.73;;;10.95;;
57191;SDS011;43052;52.588;13.396;2024-02-28T02:15:08;20.58;;;10.10;;
57191;SDS011;43052;52.588;13.396;2024-02-28T02:17:33;21.27;;;11.30;;
57191;SDS011;43052;52.588;13.396;2024-02-28T02:19:59;20.15;;;10.10;;
57191;SDS011;43052;52.588;13.396;2024-02-28T02:22:26;22.02;;;10.45;;
57191;SDS011;43052;52.588;13.396;2024-02-28T02:24:54;17.83;;;9.68;;
57191;SDS011;43052;52.588;13.396;2024-02-28T02:27:20;16.85;;;9.27;;
57191;SDS011;43052;52.588;13.396;2024-02-28T02:29:45;20.25;;;10.35;;
57191;SDS011;43052;52.588;13.396;2024-02-28T02:32:11;17.60;;;9.48;;
57191;SDS011;43052;52.588;13.396;2024-02-28T02:34:36;17.30;;;9.48;;
57191;SDS011;43052;52.588;13.396;2024-02-28T02:37:02;18.85;;;9.93;;
57191;SDS011;43052;52.588;13.396;2024-02-28T02:39:27;18.05;;;9.07;;
57191;SDS011;43052;52.588;13.396;2024-02-28T02:41:53;18.92;;;9.18;;
57191;SDS011;43052;52.588;13.396;2024-02-28T02:44:18;17.08;;;9.05;;
57191;SDS011;43052;52.588;13.396;2024-02-28T02:46:43;15.77;;;8.02;;
57191;SDS011;43052;52.588;13.396;2024-02-28T02:49:09;16.25;;;8.43;;
57191;SDS011;43052;52.588;13.396;2024-02-28T02:51:34;16.27;;;9.15;;
57191;SDS011;43052;52.588;13.396;2024-02-28T02:54:00;13.50;;;7.45;;
57191;SDS011;43052;52.588;13.396;2024-02-28T02:56:25;17.33;;;9.50;;
57191;SDS011;43052;52.588;13.396;2024-02-28T02:58:51;15.52;;;8.30;;
57191;SDS011;43052;52.588;13.396;2024-02-28T03:01:16;15.85;;;8.48;;
57191;SDS011;43052;52.588;13.396;2024-02-28T03:03:42;18.13;;;8.25;;
57191;SDS011;43052;52.588;13.396;2024-02-28T03:06:07;17.38;;;7.97;;
57191;SDS011;43052;52.588;13.396;2024-02-28T03:08:35;15.40;;;8.05;;
57191;SDS011;43052;52.588;13.396;2024-02-28T03:11:00;13.35;;;7.57;;
57191;SDS011;43052;52.588;13.396;2024-02-28T03:13:26;15.10;;;8.10;;
57191;SDS011;43052;52.588;13.396;2024-02-28T03:15:51;14.00;;;7.47;;
57191;SDS011;43052;52.588;13.396;2024-02-28T03:18:17;14.93;;;7.90;;
57191;SDS011;43052;52.588;13.396;2024-02-28T03:20:42;14.70;;;8.35;;
57191;SDS011;43052;52.588;13.396;2024-02-28T03:23:07;15.32;;;8.07;;
57191;SDS011;43052;52.588;13.396;2024-02-28T03:25:33;15.02;;;8.38;;
57191;SDS011;43052;52.588;13.396;2024-02-28T03:27:59;13.90;;;7.93;;
57191;SDS011;43052;52.588;13.396;2024-02-28T03:30:25;12.77;;;7.40;;
57191;SDS011;43052;52.588;13.396;2024-02-28T03:32:50;14.43;;;7.30;;
57191;SDS011;43052;52.588;13.396;2024-02-28T03:35:16;14.57;;;7.40;;
57191;SDS011;43052;52.588;13.396;2024-02-28T03:37:41;13.40;;;7.03;;
57191;SDS011;43052;52.588;13.396;2024-02-28T03:40:07;13.90;;;6.47;;
57191;SDS011;43052;52.588;13.396;2024-02-28T03:42:33;14.18;;;6.82;;
57191;SDS011;43052;52.588;13.396;2024-02-28T03:44:58;12.05;;;6.82;;
57191;SDS011;43052;52.588;13.396;2024-02-28T03:47:24;12.52;;;7.35;;
57191;SDS011;43052;52.588;13.396;2024-02-28T03:49:50;12.77;;;6.82;;
57191;SDS011;43052;52.588;13.396;2024-02-28T03:52:15;11.35;;;6.45;;
57191;SDS011;43052;52.588;13.396;2024-02-28T03:54:44;12.30;;;6.75;;
57191;SDS011;43052;52.588;13.396;2024-02-28T03:57:10;11.90;;;6.38;;
57191;SDS011;43052;52.588;13.396;2024-02-28T03:59:35;12.68;;;7.22;;
57191;SDS011;43052;52.588;13.396;2024-02-28T04:02:00;13.77;;;7.45;;
57191;SDS011;43052;52.588;13.396;2024-02-28T04:04:26;12.07;;;6.47;;
57191;SDS011;43052;52.588;13.396;2024-02-28T04:06:51;12.32;;;6.78;;
57191;SDS011;43052;52.588;13.396;2024-02-28T04:09:17;15.75;;;7.13;;
57191;SDS011;43052;52.588;13.396;2024-02-28T04:11:42;14.60;;;7.25;;
57191;SDS011;43052;52.588;13.396;2024-02-28T04:14:08;12.57;;;7.03;;
57191;SDS011;43052;52.588;13.396;2024-02-28T04:16:34;12.45;;;6.70;;
57191;SDS011;43052;52.588;13.396;2024-02-28T04:18:59;12.40;;;7.55;;
57191;SDS011;43052;52.588;13.396;2024-02-28T04:21:24;14.13;;;7.28;;
57191;SDS011;43052;52.588;13.396;2024-02-28T04:23:50;15.68;;;8.23;;
57191;SDS011;43052;52.588;13.396;2024-02-28T04:26:15;14.88;;;7.25;;
57191;SDS011;43052;52.588;13.396;2024-02-28T04:28:42;11.68;;;6.68;;
57191;SDS011;43052;52.588;13.396;2024-02-28T04:31:07;14.27;;;7.80;;
57191;SDS011;43052;52.588;13.396;2024-02-28T04:33:35;12.73;;;7.13;;
57191;SDS011;43052;52.588;13.396;2024-02-28T04:36:01;13.95;;;7.07;;
57191;SDS011;43052;52.588;13.396;2024-02-28T04:38:27;13.55;;;6.80;;
57191;SDS011;43052;52.588;13.396;2024-02-28T04:40:52;14.48;;;7.65;;
57191;SDS011;43052;52.588;13.396;2024-02-28T04:43:18;13.30;;;7.70;;
57191;SDS011;43052;52.588;13.396;2024-02-28T04:45:43;16.15;;;7.60;;
57191;SDS011;43052;52.588;13.396;2024-02-28T04:48:08;14.85;;;7.93;;
57191;SDS011;43052;52.588;13.396;2024-02-28T04:50:34;16.52;;;8.13;;
57191;SDS011;43052;52.588;13.396;2024-02-28T04:53:00;17.33;;;8.00;;
57191;SDS011;43052;52.588;13.396;2024-02-28T04:55:25;15.00;;;7.75;;
57191;SDS011;43052;52.588;13.396;2024-02-28T04:57:51;15.65;;;7.75;;
57191;SDS011;43052;52.588;13.396;2024-02-28T05:00:16;16.70;;;8.30;;
57191;SDS011;43052;52.588;13.396;2024-02-28T05:02:42;17.35;;;7.72;;
57191;SDS011;43052;52.588;13.396;2024-02-28T05:05:08;15.25;;;7.90;;
57191;SDS011;43052;52.588;13.396;2024-02-28T05:07:33;16.35;;;7.70;;
57191;SDS011;43052;52.588;13.396;2024-02-28T05:09:59;17.27;;;8.13;;
57191;SDS011;43052;52.588;13.396;2024-02-28T05:12:24;16.50;;;8.20;;
57191;SDS011;43052;52.588;13.396;2024-02-28T05:14:50;16.65;;;8.35;;
57191;SDS011;43052;52.588;13.396;2024-02-28T05:17:15;14.52;;;7.60;;
57191;SDS011;43052;52.588;13.396;2024-02-28T05:19:42;16.65;;;8.25;;
57191;SDS011;43052;52.588;13.396;2024-02-28T05:22:07;20.00;;;8.93;;
57191;SDS011;43052;52.588;13.396;2024-02-28T05:24:32;17.88;;;8.48;;
57191;SDS011;43052;52.588;13.396;2024-02-28T05:26:58;17.35;;;8.98;;
57191;SDS011;43052;52.588;13.396;2024-02-28T05:29:24;19.02;;;9.63;;
57191;SDS011;43052;52.588;13.396;2024-02-28T05:31:51;16.67;;;8.23;;
57191;SDS011;43052;52.588;13.396;2024-02-28T05:34:16;18.08;;;9.43;;
57191;SDS011;43052;52.588;13.396;2024-02-28T05:36:42;18.95;;;9.38;;
57191;SDS011;43052;52.588;13.396;2024-02-28T05:39:07;16.98;;;9.23;;
57191;SDS011;43052;52.588;13.396;2024-02-28T05:41:33;18.30;;;8.68;;
57191;SDS011;43052;52.588;13.396;2024-02-28T05:43:58;17.85;;;8.98;;
57191;SDS011;43052;52.588;13.396;2024-02-28T05:46:24;16.02;;;8.63;;
57191;SDS011;43052;52.588;13.396;2024-02-28T05:48:49;17.73;;;8.88;;
57191;SDS011;43052;52.588;13.396;2024-02-28T05:51:15;17.33;;;8.95;;
57191;SDS011;43052;52.588;13.396;2024-02-28T05:53:41;15.52;;;8.10;;
57191;SDS011;43052;52.588;13.396;2024-02-28T05:56:08;15.00;;;9.07;;
57191;SDS011;43052;52.588;13.396;2024-02-28T05:58:41;14.30;;;8.10;;
57191;SDS011;43052;52.588;13.396;2024-02-28T06:01:08;10.60;;;6.22;;
57191;SDS011;43052;52.588;13.396;2024-02-28T06:03:34;10.43;;;5.93;;
57191;SDS011;43052;52.588;13.396;2024-02-28T06:05:59;11.35;;;5.80;;
57191;SDS011;43052;52.588;13.396;2024-02-28T06:08:25;9.13;;;5.32;;
57191;SDS011;43052;52.588;13.396;2024-02-28T06:10:50;9.88;;;5.53;;
57191;SDS011;43052;52.588;13.396;2024-02-28T06:13:17;9.70;;;5.75;;
57191;SDS011;43052;52.588;13.396;2024-02-28T06:15:43;8.38;;;5.05;;
57191;SDS011;43052;52.588;13.396;2024-02-28T06:18:08;8.82;;;5.00;;
57191;SDS011;43052;52.588;13.396;2024-02-28T06:20:34;11.30;;;6.22;;
57191;SDS011;43052;52.588;13.396;2024-02-28T08:10:47;13.48;;;6.78;;
57191;SDS011;43052;52.588;13.396;2024-02-28T08:15:11;13.63;;;7.82;;
57191;SDS011;43052;52.588;13.396;2024-02-28T08:40:40;9.43;;;5.28;;
57191;SDS011;43052;52.588;13.396;2024-02-28T12:26:59;12.75;;;8.18;;
57191;SDS011;43052;52.588;13.396;2024-02-28T12:29:25;12.98;;;7.78;;
57191;SDS011;43052;52.588;13.396;2024-02-28T12:31:50;13.93;;;7.82;;
57191;SDS011;43052;52.588;13.396;2024-02-28T12:34:16;13.32;;;8.00;;
57191;SDS011;43052;52.588;13.396;2024-02-28T12:36:41;14.07;;;8.90;;
57191;SDS011;43052;52.588;13.396;2024-02-28T12:39:07;13.80;;;8.50;;
57191;SDS011;43052;52.588;13.396;2024-02-28T12:41:39;20.10;;;8.38;;
57191;SDS011;43052;52.588;13.396;2024-02-28T12:44:05;14.68;;;8.70;;
57191;SDS011;43052;52.588;13.396;2024-02-28T12:46:31;13.10;;;7.90;;
57191;SDS011;43052;52.588;13.396;2024-02-28T12:48:57;16.98;;;8.13;;
57191;SDS011;43052;52.588;13.396;2024-02-28T12:54:10;13.85;;;8.48;;
57191;SDS011;43052;52.588;13.396;2024-02-28T12:56:36;13.38;;;7.75;;
57191;SDS011;43052;52.588;13.396;2024-02-28T12:59:03;13.02;;;6.80;;
57191;SDS011;43052;52.588;13.396;2024-02-28T13:01:29;12.55;;;7.18;;
57191;SDS011;43052;52.588;13.396;2024-02-28T13:03:56;15.73;;;7.45;;
57191;SDS011;43052;52.588;13.396;2024-02-28T13:06:22;18.73;;;8.15;;
57191;SDS011;43052;52.588;13.396;2024-02-28T13:08:47;14.60;;;7.60;;
57191;SDS011;43052;52.588;13.396;2024-02-28T13:11:20;13.05;;;7.10;;
57191;SDS011;43052;52.588;13.396;2024-02-28T13:13:49;11.25;;;6.90;;
57191;SDS011;43052;52.588;13.396;2024-02-28T13:16:16;13.48;;;7.28;;
57191;SDS011;43052;52.588;13.396;2024-02-28T13:18:42;13.05;;;8.10;;
57191;SDS011;43052;52.588;13.396;2024-02-28T13:21:07;16.70;;;7.90;;
57191;SDS011;43052;52.588;13.396;2024-02-28T13:23:33;13.40;;;7.40;;
57191;SDS011;43052;52.588;13.396;2024-02-28T13:25:59;12.02;;;7.38;;
57191;SDS011;43052;52.588;13.396;2024-02-28T13:28:26;13.57;;;7.43;;
57191;SDS011;43052;52.588;13.396;2024-02-28T13:30:59;12.80;;;7.45;;
57191;SDS011;43052;52.588;13.396;2024-02-28T13:33:25;13.10;;;7.85;;
57191;SDS011;43052;52.588;13.396;2024-02-28T13:35:52;12.05;;;6.68;;
57191;SDS011;43052;52.588;13.396;2024-02-28T13:38:18;13.80;;;7.50;;
57191;SDS011;43052;52.588;13.396;2024-02-28T13:40:48;13.13;;;7.57;;
57191;SDS011;43052;52.588;13.396;2024-02-28T13:43:15;11.02;;;7.00;;
57191;SDS011;43052;52.588;13.396;2024-02-28T13:45:48;14.02;;;7.10;;
57191;SDS011;43052;52.588;13.396;2024-02-28T13:48:22;13.88;;;7.45;;
57191;SDS011;43052;52.588;13.396;2024-02-28T13:50:50;13.60;;;7.75;;
57191;SDS011;43052;52.588;13.396;2024-02-28T13:53:17;20.88;;;8.18;;
57191;SDS011;43052;52.588;13.396;2024-02-28T13:55:43;12.32;;;7.07;;
57191;SDS011;43052;52.588;13.396;2024-02-28T13:58:10;12.68;;;7.88;;
57191;SDS011;43052;52.588;13.396;2024-02-28T14:00:37;14.75;;;7.80;;
57191;SDS011;43052;52.588;13.396;2024-02-28T14:09:47;16.48;;;8.38;;
57191;SDS011;43052;52.588;13.396;2024-02-28T14:12:54;14.40;;;8.02;;
57191;SDS011;43052;52.588;13.396;2024-02-28T14:16:52;23.33;;;9.57;;
57191;SDS011;43052;52.588;13.396;2024-02-28T14:19:18;13.80;;;8.45;;
57191;SDS011;43052;52.588;13.396;2024-02-28T14:21:43;13.82;;;8.23;;
57191;SDS011;43052;52.588;13.396;2024-02-28T14:24:10;16.95;;;9.70;;
57191;SDS011;43052;52.588;13.396;2024-02-28T14:26:36;14.82;;;8.68;;
57191;SDS011;43052;52.588;13.396;2024-02-28T14:29:02;18.75;;;9.63;;
57191;SDS011;43052;52.588;13.396;2024-02-28T14:31:27;13.93;;;8.75;;
57191;SDS011;43052;52.588;13.396;2024-02-28T14:33:53;17.15;;;9.40;;
57191;SDS011;43052;52.588;13.396;2024-02-28T14:36:24;15.88;;;9.77;;
57191;SDS011;43052;52.588;13.396;2024-02-28T14:38:58;16.90;;;10.05;;
57191;SDS011;43052;52.588;13.396;2024-02-28T14:41:28;17.58;;;9.88;;
57191;SDS011;43052;52.588;13.396;2024-02-28T14:43:54;16.73;;;10.25;;
57191;SDS011;43052;52.588;13.396;2024-02-28T14:46:20;16.85;;;10.68;;
57191;SDS011;43052;52.588;13.396;2024-02-28T14:48:47;16.13;;;11.43;;
57191;SDS011;43052;52.588;13.396;2024-02-28T14:51:17;17.65;;;11.43;;
57191;SDS011;43052;52.588;13.396;2024-02-28T14:53:45;22.88;;;13.05;;
57191;SDS011;43052;52.588;13.396;2024-02-28T14:56:12;19.17;;;12.70;;
57191;SDS011;43052;52.588;13.396;2024-02-28T14:58:40;18.77;;;11.68;;
57191;SDS011;43052;52.588;13.396;2024-02-28T15:01:06;31.20;;;13.48;;
57191;SDS011;43052;52.588;13.396;2024-02-28T15:03:31;18.08;;;10.55;;
57191;SDS011;43052;52.588;13.396;2024-02-28T15:05:57;15.40;;;9.38;;
57191;SDS011;43052;52.588;13.396;2024-02-28T15:08:23;14.98;;;9.82;;
57191;SDS011;43052;52.588;13.396;2024-02-28T15:10:49;19.17;;;10.15;;
57191;SDS011;43052;52.588;13.396;2024-02-28T15:13:14;15.93;;;8.95;;
57191;SDS011;43052;52.588;13.396;2024-02-28T15:15:40;16.40;;;9.13;;
57191;SDS011;43052;52.588;13.396;2024-02-28T15:18:05;15.63;;;8.98;;
57191;SDS011;43052;52.588;13.396;2024-02-28T15:20:31;15.18;;;8.93;;
57191;SDS011;43052;52.588;13.396;2024-02-28T15:22:58;17.80;;;9.57;;
57191;SDS011;43052;52.588;13.396;2024-02-28T15:25:24;19.13;;;11.05;;
57191;SDS011;43052;52.588;13.396;2024-02-28T15:27:50;20.60;;;12.07;;
57191;SDS011;43052;52.588;13.396;2024-02-28T15:30:15;18.35;;;10.95;;
57191;SDS011;43052;52.588;13.396;2024-02-28T15:32:41;18.88;;;9.80;;
57191;SDS011;43052;52.588;13.396;2024-02-28T15:35:07;20.20;;;9.63;;
57191;SDS011;43052;52.588;13.396;2024-02-28T15:37:33;17.48;;;9.75;;
57191;SDS011;43052;52.588;13.396;2024-02-28T15:40:01;18.77;;;9.65;;
57191;SDS011;43052;52.588;13.396;2024-02-28T15:42:30;18.30;;;9.57;;
57191;SDS011;43052;52.588;13.396;2024-02-28T15:44:56;18.83;;;11.07;;
57191;SDS011;43052;52.588;13.396;2024-02-28T15:47:22;18.80;;;10.52;;
57191;SDS011;43052;52.588;13.396;2024-02-28T15:49:47;17.70;;;11.15;;
57191;SDS011;43052;52.588;13.396;2024-02-28T15:52:13;17.17;;;10.45;;
57191;SDS011;43052;52.588;13.396;2024-02-28T15:54:39;17.80;;;10.40;;
57191;SDS011;43052;52.588;13.396;2024-02-28T15:57:04;17.45;;;10.50;;
57191;SDS011;43052;52.588;13.396;2024-02-28T15:59:30;19.10;;;10.73;;
57191;SDS011;43052;52.588;13.396;2024-02-28T16:01:55;16.45;;;10.32;;
57191;SDS011;43052;52.588;13.396;2024-02-28T16:04:23;15.18;;;9.55;;
57191;SDS011;43052;52.588;13.396;2024-02-28T16:06:49;21.20;;;10.48;;
57191;SDS011;43052;52.588;13.396;2024-02-28T16:09:15;19.38;;;10.15;;
57191;SDS011;43052;52.588;13.396;2024-02-28T16:11:42;22.70;;;9.18;;
57191;SDS011;43052;52.588;13.396;2024-02-28T16:14:07;19.63;;;9.70;;
57191;SDS011;43052;52.588;13.396;2024-02-28T16:16:33;18.02;;;10.07;;
57191;SDS011;43052;52.588;13.396;2024-02-28T16:18:58;15.90;;;9.85;;
57191;SDS011;43052;52.588;13.396;2024-02-28T16:21:24;19.38;;;9.52;;
57191;SDS011;43052;52.588;13.396;2024-02-28T16:23:49;17.90;;;9.93;;
57191;SDS011;43052;52.588;13.396;2024-02-28T16:26:15;16.33;;;9.70;;
57191;SDS011;43052;52.588;13.396;2024-02-28T16:28:40;21.50;;;10.25;;
57191;SDS011;43052;52.588;13.396;2024-02-28T16:31:06;17.17;;;9.15;;
57191;SDS011;43052;52.588;13.396;2024-02-28T16:33:32;18.73;;;10.40;;
57191;SDS011;43052;52.588;13.396;2024-02-28T16:35:57;18.77;;;9.98;;
57191;SDS011;43052;52.588;13.396;2024-02-28T16:38:23;16.17;;;10.25;;
57191;SDS011;43052;52.588;13.396;2024-02-28T16:40:49;21.80;;;10.45;;
57191;SDS011;43052;52.588;13.396;2024-02-28T16:43:14;20.90;;;12.07;;
57191;SDS011;43052;52.588;13.396;2024-02-28T16:45:41;20.60;;;10.43;;
57191;SDS011;43052;52.588;13.396;2024-02-28T16:48:06;15.32;;;9.52;;
57191;SDS011;43052;52.588;13.396;2024-02-28T16:50:34;18.63;;;10.27;;
57191;SDS011;43052;52.588;13.396;2024-02-28T16:53:00;18.23;;;10.10;;
57191;SDS011;43052;52.588;13.396;2024-02-28T16:55:25;21.65;;;10.63;;
57191;SDS011;43052;52.588;13.396;2024-02-28T16:57:51;19.52;;;9.82;;
57191;SDS011;43052;52.588;13.396;2024-02-28T17:00:17;20.67;;;10.85;;
57191;SDS011;43052;52.588;13.396;2024-02-28T17:02:44;22.40;;;10.85;;
57191;SDS011;43052;52.588;13.396;2024-02-28T17:05:10;18.88;;;10.15;;
57191;SDS011;43052;52.588;13.396;2024-02-28T17:07:35;19.38;;;10.82;;
57191;SDS011;43052;52.588;13.396;2024-02-28T17:10:01;21.13;;;10.63;;
57191;SDS011;43052;52.588;13.396;2024-02-28T17:12:27;21.92;;;11.00;;
57191;SDS011;43052;52.588;13.396;2024-02-28T17:14:52;21.08;;;11.55;;
57191;SDS011;43052;52.588;13.396;2024-02-28T17:17:19;19.48;;;11.60;;
57191;SDS011;43052;52.588;13.396;2024-02-28T17:19:45;26.23;;;14.32;;
57191;SDS011;43052;52.588;13.396;2024-02-28T17:22:11;24.98;;;18.10;;
57191;SDS011;43052;52.588;13.396;2024-02-28T17:24:37;40.00;;;22.20;;
57191;SDS011;43052;52.588;13.396;2024-02-28T17:27:05;27.65;;;17.25;;
57191;SDS011;43052;52.588;13.396;2024-02-28T17:29:32;23.23;;;13.80;;
57191;SDS011;43052;52.588;13.396;2024-02-28T17:31:58;31.35;;;17.60;;
57191;SDS011;43052;52.588;13.396;2024-02-28T17:34:24;27.15;;;16.95;;
57191;SDS011;43052;52.588;13.396;2024-02-28T17:36:50;38.80;;;18.65;;
57191;SDS011;43052;52.588;13.396;2024-02-28T17:39:15;32.13;;;18.40;;
57191;SDS011;43052;52.588;13.396;2024-02-28T17:41:42;28.25;;;18.63;;
57191;SDS011;43052;52.588;13.396;2024-02-28T17:44:11;31.42;;;18.92;;
57191;SDS011;43052;52.588;13.396;2024-02-28T17:46:37;30.17;;;19.52;;
57191;SDS011;43052;52.588;13.396;2024-02-28T17:49:03;33.80;;;20.85;;
57191;SDS011;43052;52.588;13.396;2024-02-28T17:51:32;85.10;;;51.45;;
57191;SDS011;43052;52.588;13.396;2024-02-28T17:54:04;50.20;;;31.92;;
57191;SDS011;43052;52.588;13.396;2024-02-28T17:56:34;41.80;;;27.05;;
57191;SDS011;43052;52.588;13.396;2024-02-28T17:58:59;43.08;;;28.55;;
57191;SDS011;43052;52.588;13.396;2024-02-28T18:01:25;35.00;;;21.95;;
57191;SDS011;43052;52.588;13.396;2024-02-28T18:03:51;34.60;;;21.33;;
57191;SDS011;43052;52.588;13.396;2024-02-28T18:06:17;35.72;;;20.38;;
57191;SDS011;43052;52.588;13.396;2024-02-28T18:08:43;34.42;;;20.65;;
57191;SDS011;43052;52.588;13.396;2024-02-28T18:11:09;32.20;;;20.42;;
57191;SDS011;43052;52.588;13.396;2024-02-28T18:13:34;34.17;;;20.20;;
57191;SDS011;43052;52.588;13.396;2024-02-28T18:16:00;35.47;;;22.80;;
57191;SDS011;43052;52.588;13.396;2024-02-28T18:18:26;37.50;;;23.52;;
57191;SDS011;43052;52.588;13.396;2024-02-28T18:20:52;37.55;;;26.45;;
